This is the latest recevied weather packets stored in our database for station/object OE3BCB-14. If no packets are shown the sender has not sent any weather packets the latest 1 day(s).
| Time | Temp. | Humidity | Pressure | Rain* | Wind** | Luminosity | Snow |
|---|---|---|---|---|---|---|---|
| 1777981823 | 37.22° C | 23% | 1008 hPa | - | 0 m/s | 73 W/m² | - |
| 1777981521 | 37.22° C | 23% | 1008.1 hPa | - | 0.45 m/s, 45° | 75 W/m² | - |
| 1777981218 | 38.33° C | 23% | 1008.2 hPa | - | 0 m/s | 76 W/m² | - |
| 1777980916 | 38.89° C | 23% | 1008.3 hPa | - | 0.45 m/s, 45° | 78 W/m² | - |
| 1777980614 | 36.67° C | 25% | 1008.4 hPa | - | 0 m/s | 79 W/m² | - |
| 1777980311 | 36.67° C | 25% | 1008.6 hPa | - | 0.45 m/s, 45° | 80 W/m² | - |
| 1777980009 | 36.67° C | 24% | 1008.6 hPa | - | 0.89 m/s, 135° | 81 W/m² | - |
| 1777979404 | 34.44° C | 26% | 1008.7 hPa | - | 0 m/s | 83 W/m² | - |
| 1777979102 | 35.56° C | 26% | 1008.8 hPa | - | 0 m/s | 83 W/m² | - |
| 1777978799 | 34.44° C | 25% | 1008.9 hPa | - | 0.45 m/s, 135° | 83 W/m² | - |
| 1777978497 | 35° C | 26% | 1009 hPa | - | 0.45 m/s, 135° | 83 W/m² | - |
| 1777977892 | 33.89° C | 27% | 1009.1 hPa | - | 0 m/s | 83 W/m² | - |
| 1777977590 | 33.89° C | 27% | 1009.2 hPa | - | 0.89 m/s, 45° | 83 W/m² | - |
| 1777977287 | 34.44° C | 27% | 1009.3 hPa | - | 0.45 m/s, 135° | 83 W/m² | - |
| 1777976985 | 34.44° C | 28% | 1009.4 hPa | - | 0.45 m/s, 135° | 85 W/m² | - |
| 1777976682 | 33.33° C | 29% | 1009.5 hPa | - | 0 m/s | 89 W/m² | - |
| 1777976380 | 33.33° C | 29% | 1009.5 hPa | - | 0.89 m/s, 45° | 93 W/m² | - |
| 1777976077 | 31.67° C | 30% | 1009.6 hPa | - | 0.45 m/s, 45° | 99 W/m² | - |
| 1777975775 | 31.67° C | 31% | 1009.6 hPa | - | 0 m/s | 110 W/m² | - |
| 1777975473 | 32.22° C | 30% | 1009.7 hPa | - | 0 m/s | 131 W/m² | - |
| 1777975170 | 31.11° C | 31% | 1009.8 hPa | - | 0.45 m/s, 0° | 170 W/m² | - |
| 1777974868 | 30.56° C | 32% | 1009.9 hPa | - | 0 m/s | 218 W/m² | - |
| 1777974565 | 31.11° C | 32% | 1009.9 hPa | - | 0.45 m/s, 0° | 269 W/m² | - |
| 1777974263 | 31.67° C | 31% | 1010 hPa | - | 1.34 m/s, 135° | 310 W/m² | - |
| 1777973961 | 31.67° C | 32% | 1010.1 hPa | - | 0.45 m/s, 45° | 333 W/m² | - |
* Rain since midnight (hover to see other rain measurements)
** Current wind speed in m/s (hover to see current wind gust speed)